createdAt,value
2023-05-01T00:01:24.810Z,9.45
2023-05-01T00:03:58.032Z,9.42
2023-05-01T00:06:29.198Z,9.43
2023-05-01T00:09:00.184Z,9.49
2023-05-01T00:11:30.627Z,9.44
2023-05-01T00:14:00.973Z,9.40
2023-05-01T00:16:34.704Z,9.42
2023-05-01T00:19:08.485Z,9.41
2023-05-01T00:21:38.745Z,9.36
2023-05-01T00:24:10.789Z,9.44
2023-05-01T00:26:41.010Z,9.36
2023-05-01T00:29:11.731Z,9.41
2023-05-01T00:31:42.641Z,9.37
2023-05-01T00:34:15.842Z,9.35
2023-05-01T00:36:48.091Z,9.38
2023-05-01T00:39:19.910Z,9.36
2023-05-01T00:41:50.255Z,9.40
2023-05-01T00:44:20.633Z,9.39
2023-05-01T00:46:51.049Z,9.33
2023-05-01T00:49:23.940Z,9.32
2023-05-01T00:51:56.349Z,9.31
2023-05-01T00:54:27.968Z,9.30
2023-05-01T00:56:58.638Z,9.27
2023-05-01T00:59:29.364Z,9.27
2023-05-01T01:02:00.565Z,9.27
2023-05-01T01:04:35.909Z,9.35
2023-05-01T01:07:12.438Z,9.24
2023-05-01T01:09:56.073Z,9.19
2023-05-01T01:12:35.177Z,9.14
2023-05-01T01:15:16.349Z,8.99
2023-05-01T01:17:55.247Z,9.03
2023-05-01T01:20:40.075Z,9.02
2023-05-01T01:23:37.970Z,8.96
2023-05-01T01:26:16.220Z,8.90
2023-05-01T01:29:17.360Z,8.82
2023-05-01T01:32:00.869Z,8.81
2023-05-01T01:34:37.441Z,8.76
2023-05-01T01:37:14.458Z,8.73
2023-05-01T01:39:51.733Z,8.74
2023-05-01T01:42:27.121Z,8.70
2023-05-01T01:44:59.567Z,8.67
2023-05-01T01:47:34.537Z,8.69
2023-05-01T01:50:10.678Z,8.72
2023-05-01T01:52:43.618Z,8.70
2023-05-01T01:55:16.374Z,8.65
2023-05-01T01:57:48.924Z,8.66
2023-05-01T02:00:20.933Z,8.62
2023-05-01T02:02:54.115Z,8.52
2023-05-01T02:05:29.665Z,8.55
2023-05-01T02:08:02.187Z,8.50
2023-05-01T02:10:33.741Z,8.47
2023-05-01T02:13:06.240Z,8.48
2023-05-01T02:15:38.846Z,8.57
2023-05-01T02:18:10.930Z,8.55
2023-05-01T02:20:45.806Z,8.62
2023-05-01T02:23:18.879Z,8.66
2023-05-01T02:25:51.272Z,8.65
2023-05-01T02:28:26.246Z,8.62
2023-05-01T02:30:57.542Z,8.32
2023-05-01T02:33:28.519Z,8.50
2023-05-01T02:36:01.450Z,8.49
2023-05-01T02:38:32.934Z,8.43
2023-05-01T02:41:05.384Z,8.39
2023-05-01T02:43:37.561Z,8.37
2023-05-01T02:46:10.713Z,8.35
2023-05-01T02:48:43.323Z,8.31
2023-05-01T02:51:17.053Z,8.27
2023-05-01T02:53:47.584Z,8.23
2023-05-01T02:56:18.329Z,8.23
2023-05-01T02:58:48.729Z,8.24
2023-05-01T03:01:19.136Z,8.24
2023-05-01T03:03:49.715Z,8.23
2023-05-01T03:06:22.704Z,8.26
2023-05-01T03:08:56.298Z,8.26
2023-05-01T03:11:27.236Z,8.29
2023-05-01T03:13:57.749Z,8.30
2023-05-01T03:16:28.146Z,8.30
2023-05-01T03:18:59.236Z,8.31
2023-05-01T03:21:33.092Z,8.30
2023-05-01T03:24:03.777Z,8.31
2023-05-01T03:26:34.022Z,8.31
2023-05-01T03:29:04.303Z,8.35
2023-05-01T03:31:34.643Z,8.32
2023-05-01T03:34:05.192Z,8.24
2023-05-01T03:36:38.044Z,8.40
2023-05-01T03:39:08.877Z,8.52
2023-05-01T03:41:39.674Z,8.55
2023-05-01T03:44:10.252Z,8.55
2023-05-01T03:46:40.847Z,8.57
2023-05-01T03:49:11.294Z,8.61
2023-05-01T03:51:44.859Z,8.63
2023-05-01T03:54:15.283Z,8.70
2023-05-01T03:56:45.880Z,8.78
2023-05-01T03:59:16.081Z,8.88
2023-05-01T04:01:46.443Z,8.95
2023-05-01T04:04:16.921Z,9.07
2023-05-01T04:06:53.369Z,9.08
2023-05-01T04:09:23.710Z,9.25
2023-05-01T04:11:53.974Z,9.59
2023-05-01T04:14:24.320Z,9.78
2023-05-01T04:16:57.057Z,9.99
2023-05-01T04:19:28.140Z,10.19
2023-05-01T04:22:01.753Z,10.46
2023-05-01T04:24:32.032Z,10.64
2023-05-01T04:27:02.337Z,10.75
2023-05-01T04:29:32.659Z,10.84
2023-05-01T04:32:03.029Z,10.91
2023-05-01T04:34:33.406Z,11.06
2023-05-01T04:37:08.076Z,11.40
2023-05-01T04:39:38.676Z,11.66
2023-05-01T04:42:09.349Z,11.83
2023-05-01T04:44:40.710Z,12.03
2023-05-01T04:47:11.334Z,12.38
2023-05-01T04:49:41.799Z,13.39
2023-05-01T04:52:15.142Z,14.92
2023-05-01T04:54:48.227Z,16.32
2023-05-01T04:57:18.606Z,17.15
2023-05-01T04:59:51.952Z,17.96
2023-05-01T05:02:22.342Z,18.46
2023-05-01T05:04:54.756Z,18.98
2023-05-01T05:07:27.664Z,19.30
2023-05-01T05:09:58.750Z,20.07
2023-05-01T05:12:29.305Z,20.43
2023-05-01T05:15:02.457Z,21.03
2023-05-01T05:17:32.902Z,19.92
2023-05-01T05:20:03.596Z,20.29
2023-05-01T05:22:39.192Z,20.69
2023-05-01T05:25:10.166Z,19.82
2023-05-01T05:27:40.841Z,19.97
2023-05-01T05:30:12.757Z,20.44
2023-05-01T05:32:43.077Z,19.12
2023-05-01T05:35:13.412Z,17.78
2023-05-01T05:37:46.398Z,18.35
2023-05-01T05:40:17.043Z,18.26
2023-05-01T05:42:48.753Z,18.37
2023-05-01T05:45:19.202Z,18.89
2023-05-01T05:47:49.422Z,19.31
2023-05-01T05:50:19.955Z,18.61
2023-05-01T05:52:52.802Z,18.43
2023-05-01T05:55:23.075Z,18.60
2023-05-01T05:57:53.526Z,17.75
2023-05-01T06:00:24.224Z,17.80
2023-05-01T06:02:57.960Z,17.87
2023-05-01T06:05:28.294Z,16.96
2023-05-01T06:08:01.619Z,16.97
2023-05-01T06:10:32.265Z,17.29
2023-05-01T06:13:10.829Z,17.55
2023-05-01T06:15:45.183Z,18.21
2023-05-01T06:18:16.949Z,17.83
2023-05-01T06:20:48.057Z,18.54
2023-05-01T06:23:21.596Z,18.65
2023-05-01T06:25:51.966Z,18.49
2023-05-01T06:28:22.165Z,18.67
2023-05-01T06:30:52.614Z,18.04
2023-05-01T06:33:23.508Z,18.10
2023-05-01T06:35:54.842Z,18.07
2023-05-01T06:38:29.883Z,17.73
2023-05-01T06:41:00.326Z,18.63
2023-05-01T06:43:31.363Z,18.84
2023-05-01T06:46:01.795Z,18.83
2023-05-01T06:48:32.264Z,19.28
2023-05-01T06:51:05.524Z,19.06
2023-05-01T06:53:38.686Z,18.83
2023-05-01T06:56:09.593Z,17.47
2023-05-01T06:58:45.071Z,18.15
2023-05-01T07:01:15.518Z,18.73
2023-05-01T07:03:46.797Z,19.06
2023-05-01T07:06:19.129Z,19.63
2023-05-01T07:08:52.271Z,20.32
2023-05-01T07:11:23.342Z,19.55
2023-05-01T07:13:53.751Z,19.20
2023-05-01T07:16:26.962Z,18.96
2023-05-01T07:18:57.633Z,19.52
2023-05-01T07:21:28.247Z,20.18
2023-05-01T07:24:01.328Z,20.42
2023-05-01T07:26:31.793Z,20.40
2023-05-01T07:29:02.106Z,20.00
2023-05-01T07:31:32.887Z,20.27
2023-05-01T07:34:04.015Z,20.01
2023-05-01T07:36:34.676Z,20.25
2023-05-01T07:39:08.349Z,20.19
2023-05-01T07:41:38.706Z,20.67
2023-05-01T07:44:09.278Z,20.56
2023-05-01T07:46:39.615Z,20.84
2023-05-01T07:49:10.148Z,21.13
2023-05-01T07:51:41.743Z,21.40
2023-05-01T07:54:16.644Z,21.03
2023-05-01T07:56:48.578Z,20.42
2023-05-01T07:59:20.055Z,20.99
2023-05-01T08:01:51.973Z,21.71
2023-05-01T08:04:23.126Z,21.47
2023-05-01T08:06:54.057Z,21.49
2023-05-01T08:09:27.038Z,21.67
2023-05-01T08:11:57.369Z,21.87
2023-05-01T08:14:27.862Z,21.91
2023-05-01T08:16:58.452Z,20.52
2023-05-01T08:19:28.844Z,20.84
2023-05-01T08:21:59.159Z,21.77
2023-05-01T08:24:32.423Z,21.33
2023-05-01T08:27:02.855Z,21.38
2023-05-01T08:29:33.166Z,21.92
2023-05-01T08:32:03.555Z,21.71
2023-05-01T08:34:33.819Z,22.22
2023-05-01T08:37:04.102Z,22.72
2023-05-01T08:39:37.114Z,23.18
2023-05-01T08:42:07.806Z,21.25
2023-05-01T08:44:41.795Z,21.75
2023-05-01T08:47:15.655Z,21.42
2023-05-01T08:49:46.905Z,22.03
2023-05-01T08:52:18.914Z,22.25
2023-05-01T08:54:57.773Z,22.81
2023-05-01T08:57:29.319Z,22.91
2023-05-01T09:00:01.977Z,22.68
2023-05-01T09:02:33.392Z,23.58
2023-05-01T09:05:05.230Z,23.07
2023-05-01T09:07:35.727Z,22.46
2023-05-01T09:10:09.819Z,23.18
2023-05-01T09:12:41.977Z,22.09
2023-05-01T09:15:13.188Z,22.83
2023-05-01T09:17:44.275Z,22.00
2023-05-01T09:20:15.127Z,23.02
2023-05-01T09:22:45.786Z,23.57
2023-05-01T09:25:19.613Z,23.64
2023-05-01T09:27:49.634Z,23.77
2023-05-01T09:30:35.648Z,23.56
2023-05-01T09:33:11.036Z,23.89
2023-05-01T09:35:58.883Z,23.87
2023-05-01T09:38:30.419Z,24.19
2023-05-01T09:41:07.702Z,23.64
2023-05-01T09:43:38.306Z,23.68
2023-05-01T09:46:11.304Z,23.06
2023-05-01T09:48:42.001Z,23.31
2023-05-01T09:51:28.256Z,23.79
2023-05-01T09:54:00.655Z,23.05
2023-05-01T09:56:34.922Z,24.05
2023-05-01T09:59:19.176Z,24.38
2023-05-01T10:01:52.519Z,24.54
2023-05-01T10:04:32.836Z,24.06
2023-05-01T10:07:15.174Z,24.36
2023-05-01T10:09:50.951Z,24.14
2023-05-01T10:12:30.680Z,24.35
2023-05-01T10:15:07.903Z,24.12
2023-05-01T10:17:45.943Z,23.58
2023-05-01T10:20:16.635Z,24.08
2023-05-01T10:22:47.459Z,24.58
2023-05-01T10:25:19.028Z,24.58
2023-05-01T10:27:53.561Z,24.65
2023-05-01T10:30:25.334Z,24.50
2023-05-01T10:32:56.157Z,24.55
2023-05-01T10:35:30.891Z,24.21
2023-05-01T10:38:04.667Z,24.27
2023-05-01T10:40:51.864Z,24.73
2023-05-01T10:43:30.775Z,24.89
2023-05-01T10:46:31.509Z,24.72
2023-05-01T10:49:02.206Z,24.82
2023-05-01T10:51:32.585Z,24.43
2023-05-01T10:54:28.189Z,24.04
2023-05-01T10:57:01.458Z,24.13
2023-05-01T10:59:54.343Z,24.05
2023-05-01T11:02:26.911Z,24.32
2023-05-01T11:04:57.706Z,24.31
2023-05-01T11:07:28.536Z,24.33
2023-05-01T11:10:02.100Z,24.18
2023-05-01T11:12:52.029Z,23.61
2023-05-01T11:15:35.662Z,23.81
2023-05-01T11:18:09.061Z,23.85
2023-05-01T11:20:52.354Z,23.95
2023-05-01T11:23:25.982Z,24.09
2023-05-01T11:26:08.362Z,24.02
2023-05-01T11:28:41.436Z,24.19
2023-05-01T11:31:20.921Z,24.02
2023-05-01T11:33:51.282Z,23.98
2023-05-01T11:36:22.693Z,24.04
2023-05-01T11:38:53.988Z,23.60
2023-05-01T11:41:24.647Z,23.55
2023-05-01T11:43:56.541Z,23.61
2023-05-01T11:46:31.448Z,23.65
2023-05-01T11:49:04.063Z,23.52
2023-05-01T11:51:35.058Z,23.76
2023-05-01T11:54:07.264Z,23.41
2023-05-01T11:56:41.241Z,23.34
2023-05-01T11:59:16.719Z,23.36
2023-05-01T12:01:51.272Z,23.72
2023-05-01T12:04:32.015Z,23.55
2023-05-01T12:07:02.875Z,23.04
2023-05-01T12:09:34.129Z,23.07
2023-05-01T12:12:07.558Z,23.16
2023-05-01T12:14:38.171Z,23.30
2023-05-01T12:17:14.973Z,23.60
2023-05-01T12:19:54.616Z,23.55
2023-05-01T12:22:25.200Z,23.79
2023-05-01T12:24:56.516Z,23.62
2023-05-01T12:27:27.133Z,23.28
2023-05-01T12:29:58.414Z,23.29
2023-05-01T12:32:35.904Z,23.51
2023-05-01T12:35:16.523Z,23.50
2023-05-01T12:37:47.175Z,23.34
2023-05-01T12:40:19.201Z,23.12
2023-05-01T12:42:57.900Z,23.23
2023-05-01T12:45:30.941Z,23.28
2023-05-01T12:48:04.195Z,23.50
2023-05-01T12:50:40.175Z,23.20
2023-05-01T12:53:11.132Z,23.31
2023-05-01T12:55:49.514Z,23.42
2023-05-01T12:58:20.831Z,23.48
2023-05-01T13:00:53.141Z,23.52
2023-05-01T13:03:29.529Z,23.47
2023-05-01T13:06:01.530Z,23.09
2023-05-01T13:08:34.466Z,23.15
2023-05-01T13:11:13.358Z,23.06
2023-05-01T13:13:45.783Z,23.07
2023-05-01T13:16:17.153Z,23.15
2023-05-01T13:18:52.477Z,22.88
2023-05-01T13:21:24.639Z,23.21
2023-05-01T13:23:58.423Z,23.29
2023-05-01T13:26:31.707Z,23.12
2023-05-01T13:29:03.437Z,22.91
2023-05-01T13:31:34.106Z,22.98
2023-05-01T13:34:08.281Z,22.91
2023-05-01T13:36:41.203Z,23.07
2023-05-01T13:39:12.040Z,23.03
2023-05-01T13:41:45.656Z,23.07
2023-05-01T13:44:15.798Z,23.26
2023-05-01T13:46:46.733Z,23.34
2023-05-01T13:49:23.656Z,23.30
2023-05-01T13:52:01.074Z,23.44
2023-05-01T13:54:31.304Z,23.27
2023-05-01T13:57:03.592Z,23.40
2023-05-01T13:59:39.997Z,23.33
2023-05-01T14:02:22.642Z,23.20
2023-05-01T14:04:58.565Z,22.91
2023-05-01T14:07:31.120Z,23.10
2023-05-01T14:10:04.735Z,23.10
2023-05-01T14:12:35.757Z,22.85
2023-05-01T14:15:07.419Z,22.96
2023-05-01T14:17:38.900Z,23.15
2023-05-01T14:20:14.552Z,23.19
2023-05-01T14:22:46.853Z,23.13
2023-05-01T14:25:27.412Z,22.96
2023-05-01T14:27:58.986Z,22.84
2023-05-01T14:30:35.514Z,22.81
2023-05-01T14:33:13.112Z,22.79
2023-05-01T14:35:54.040Z,22.48
2023-05-01T14:38:29.063Z,22.60
2023-05-01T14:41:01.947Z,22.68
2023-05-01T14:43:32.250Z,22.48
2023-05-01T14:46:02.940Z,22.43
2023-05-01T14:48:38.286Z,22.32
2023-05-01T14:51:13.707Z,22.36
2023-05-01T14:53:45.081Z,22.51
2023-05-01T14:56:16.289Z,22.46
2023-05-01T14:58:47.247Z,22.46
2023-05-01T15:01:18.389Z,22.27
2023-05-01T15:03:53.489Z,22.26
2023-05-01T15:06:28.887Z,22.08
2023-05-01T15:09:01.463Z,22.13
2023-05-01T15:11:31.726Z,22.15
2023-05-01T15:14:02.804Z,22.10
2023-05-01T15:16:33.759Z,22.36
2023-05-01T15:19:06.495Z,22.47
2023-05-01T15:21:42.535Z,22.16
2023-05-01T15:24:13.258Z,22.24
2023-05-01T15:26:43.661Z,22.08
2023-05-01T15:29:14.033Z,22.09
2023-05-01T15:31:51.942Z,22.05
2023-05-01T15:34:26.549Z,22.12
2023-05-01T15:36:59.497Z,21.99
2023-05-01T15:39:30.006Z,22.02
2023-05-01T15:42:00.658Z,21.94
2023-05-01T15:44:32.028Z,21.93
2023-05-01T15:47:02.494Z,21.85
2023-05-01T15:49:34.945Z,21.84
2023-05-01T15:52:09.297Z,21.82
2023-05-01T15:54:39.541Z,21.71
2023-05-01T15:57:11.201Z,21.71
2023-05-01T15:59:42.643Z,21.67
2023-05-01T16:02:15.972Z,21.66
2023-05-01T16:04:49.683Z,21.52
2023-05-01T16:07:22.541Z,21.43
2023-05-01T16:10:00.668Z,21.48
2023-05-01T16:12:31.754Z,21.47
2023-05-01T16:15:05.097Z,21.44
2023-05-01T16:17:38.275Z,21.18
2023-05-01T16:20:14.640Z,21.26
2023-05-01T16:22:48.169Z,21.15
2023-05-01T16:25:21.434Z,21.10
2023-05-01T16:27:54.935Z,21.00
2023-05-01T16:30:27.899Z,21.01
2023-05-01T16:32:58.420Z,20.93
2023-05-01T16:35:30.745Z,20.79
2023-05-01T16:38:03.778Z,20.86
2023-05-01T16:40:35.201Z,20.75
2023-05-01T16:43:05.644Z,20.67
2023-05-01T16:45:36.234Z,20.58
2023-05-01T16:48:08.499Z,20.51
2023-05-01T16:50:43.137Z,20.42
2023-05-01T16:53:15.981Z,20.31
2023-05-01T16:55:46.497Z,20.22
2023-05-01T16:58:17.062Z,20.09
2023-05-01T17:00:48.501Z,19.92
2023-05-01T17:03:18.959Z,19.77
2023-05-01T17:05:49.215Z,19.62
2023-05-01T17:08:22.345Z,19.52
2023-05-01T17:10:52.633Z,19.34
2023-05-01T17:13:23.295Z,19.20
2023-05-01T17:15:53.741Z,19.03
2023-05-01T17:18:24.450Z,18.87
2023-05-01T17:20:54.914Z,18.70
2023-05-01T17:23:28.479Z,18.55
2023-05-01T17:26:01.823Z,18.35
2023-05-01T17:28:32.030Z,18.20
2023-05-01T17:31:04.682Z,18.02
2023-05-01T17:33:34.926Z,17.88
2023-05-01T17:36:05.860Z,17.76
2023-05-01T17:38:38.762Z,17.56
2023-05-01T17:41:09.056Z,17.34
2023-05-01T17:43:39.622Z,17.15
2023-05-01T17:46:10.084Z,17.00
2023-05-01T17:48:41.490Z,16.87
2023-05-01T17:51:14.158Z,16.70
2023-05-01T17:53:49.700Z,16.56
2023-05-01T17:56:21.903Z,16.34
2023-05-01T17:58:53.275Z,16.15
2023-05-01T18:01:24.062Z,16.02
2023-05-01T18:03:55.584Z,15.90
2023-05-01T18:06:26.076Z,15.77
2023-05-01T18:08:59.372Z,15.64
2023-05-01T18:11:29.837Z,15.50
2023-05-01T18:14:00.804Z,15.38
2023-05-01T18:16:31.179Z,15.24
2023-05-01T18:19:02.028Z,15.17
2023-05-01T18:21:33.086Z,15.10
2023-05-01T18:24:06.026Z,15.03
2023-05-01T18:26:38.956Z,14.76
2023-05-01T18:29:09.582Z,14.80
2023-05-01T18:31:40.370Z,14.88
2023-05-01T18:34:12.395Z,14.83
2023-05-01T18:36:42.717Z,14.77
2023-05-01T18:39:15.892Z,14.73
2023-05-01T18:41:47.005Z,14.68
2023-05-01T18:44:17.384Z,14.69
2023-05-01T18:46:48.556Z,14.67
2023-05-01T18:49:25.314Z,14.67
2023-05-01T18:51:58.864Z,14.63
2023-05-01T18:54:32.402Z,14.55
2023-05-01T18:57:02.674Z,14.46
2023-05-01T18:59:34.509Z,14.38
2023-05-01T19:02:06.876Z,14.26
2023-05-01T19:04:56.166Z,14.15
2023-05-01T19:07:28.200Z,14.04
2023-05-01T19:10:06.373Z,13.99
2023-05-01T19:12:36.955Z,13.95
2023-05-01T19:15:10.697Z,13.96
2023-05-01T19:17:41.489Z,13.95
2023-05-01T19:20:13.071Z,13.99
2023-05-01T19:22:44.545Z,14.00
2023-05-01T19:25:20.908Z,14.09
2023-05-01T19:27:52.007Z,14.09
2023-05-01T19:30:22.446Z,14.08
2023-05-01T19:32:52.807Z,14.06
2023-05-01T19:35:25.203Z,14.03
2023-05-01T19:37:58.134Z,14.00
2023-05-01T19:40:31.077Z,13.95
2023-05-01T19:43:03.382Z,13.89
2023-05-01T19:45:36.938Z,13.85
2023-05-01T19:48:07.929Z,13.81
2023-05-01T19:50:42.955Z,13.80
2023-05-01T19:53:15.227Z,13.71
2023-05-01T19:55:48.350Z,13.73
2023-05-01T19:58:19.148Z,13.68
2023-05-01T20:00:49.484Z,13.66
2023-05-01T20:03:28.756Z,13.65
2023-05-01T20:06:00.313Z,13.59
2023-05-01T20:08:30.692Z,13.61
2023-05-01T20:11:05.805Z,13.60
2023-05-01T20:13:37.783Z,13.55
2023-05-01T20:16:09.852Z,13.48
2023-05-01T20:18:42.379Z,13.44
2023-05-01T20:21:12.638Z,13.43
2023-05-01T20:23:43.275Z,13.37
2023-05-01T20:26:17.660Z,13.32
2023-05-01T20:28:48.573Z,13.27
2023-05-01T20:31:19.691Z,13.24
2023-05-01T20:33:53.358Z,13.24
2023-05-01T20:36:25.381Z,13.19
2023-05-01T20:38:58.112Z,13.16
2023-05-01T20:41:35.253Z,13.10
2023-05-01T20:44:05.493Z,13.08
2023-05-01T20:46:35.820Z,13.05
2023-05-01T20:49:08.752Z,13.04
2023-05-01T20:51:39.413Z,13.03
2023-05-01T20:54:09.727Z,13.01
2023-05-01T20:56:42.553Z,12.98
2023-05-01T20:59:13.849Z,12.94
2023-05-01T21:01:44.200Z,12.92
2023-05-01T21:04:14.570Z,12.89
2023-05-01T21:06:46.663Z,12.85
2023-05-01T21:09:19.462Z,12.83
2023-05-01T21:11:52.495Z,12.86
2023-05-01T21:14:22.717Z,12.80
2023-05-01T21:16:55.591Z,12.76
2023-05-01T21:19:26.111Z,12.73
2023-05-01T21:21:56.941Z,12.55
2023-05-01T21:24:28.141Z,12.67
2023-05-01T21:27:03.358Z,12.62
2023-05-01T21:29:34.187Z,12.57
2023-05-01T21:32:06.588Z,12.54
2023-05-01T21:34:37.292Z,12.50
2023-05-01T21:37:11.063Z,12.46
2023-05-01T21:39:41.374Z,12.46
2023-05-01T21:42:15.469Z,12.46
2023-05-01T21:44:46.194Z,12.35
2023-05-01T21:47:18.096Z,12.32
2023-05-01T21:49:49.194Z,12.29
2023-05-01T21:52:20.006Z,12.24
2023-05-01T21:54:53.022Z,12.20
2023-05-01T21:57:25.872Z,12.22
2023-05-01T21:59:58.769Z,12.15
2023-05-01T22:02:33.294Z,12.13
2023-05-01T22:05:06.627Z,12.17
2023-05-01T22:07:37.512Z,12.18
2023-05-01T22:10:09.065Z,12.16
2023-05-01T22:12:43.825Z,12.08
2023-05-01T22:15:15.735Z,12.02
2023-05-01T22:17:46.330Z,11.97
2023-05-01T22:20:19.213Z,11.95
2023-05-01T22:22:51.547Z,11.96
2023-05-01T22:25:21.833Z,11.95
2023-05-01T22:27:54.902Z,11.89
2023-05-01T22:30:25.504Z,11.91
2023-05-01T22:32:56.036Z,11.97
2023-05-01T22:35:26.502Z,11.99
2023-05-01T22:37:56.836Z,12.01
2023-05-01T22:40:29.347Z,12.07
2023-05-01T22:43:02.621Z,12.07
2023-05-01T22:45:33.568Z,12.07
2023-05-01T22:48:04.360Z,12.05
2023-05-01T22:50:34.713Z,12.04
2023-05-01T22:53:05.216Z,12.05
2023-05-01T22:55:36.146Z,12.00
2023-05-01T22:58:14.984Z,11.98
2023-05-01T23:00:45.275Z,11.97
2023-05-01T23:03:15.705Z,11.92
2023-05-01T23:05:46.404Z,11.91
2023-05-01T23:08:16.607Z,11.92
2023-05-01T23:10:46.969Z,11.86
2023-05-01T23:13:23.802Z,11.86
2023-05-01T23:15:54.063Z,11.80
2023-05-01T23:18:27.555Z,11.81
2023-05-01T23:20:57.884Z,11.77
2023-05-01T23:23:33.052Z,11.78
2023-05-01T23:26:04.042Z,11.82
2023-05-01T23:28:39.990Z,11.76
2023-05-01T23:31:20.310Z,11.75
2023-05-01T23:33:50.645Z,11.72
2023-05-01T23:36:23.278Z,11.71
2023-05-01T23:38:53.631Z,11.71
2023-05-01T23:41:24.794Z,11.70
2023-05-01T23:43:57.749Z,11.69
2023-05-01T23:46:28.527Z,11.64
2023-05-01T23:48:59.919Z,11.71
2023-05-01T23:51:31.712Z,11.71
2023-05-01T23:54:03.783Z,11.66
2023-05-01T23:56:34.126Z,11.69
2023-05-01T23:59:09.390Z,11.68
